createdAt,value
2017-07-05T00:00:09.934Z,82.00
2017-07-05T00:01:10.622Z,82.42
2017-07-05T00:02:11.319Z,82.81
2017-07-05T00:03:12.261Z,83.15
2017-07-05T00:04:12.944Z,82.90
2017-07-05T00:05:13.640Z,82.71
2017-07-05T00:06:14.331Z,82.96
2017-07-05T00:07:15.028Z,82.76
2017-07-05T00:08:15.969Z,82.67
2017-07-05T00:09:16.659Z,82.76
2017-07-05T00:10:17.352Z,82.48
2017-07-05T00:11:18.043Z,82.38
2017-07-05T00:12:18.736Z,83.05
2017-07-05T00:13:19.672Z,82.57
2017-07-05T00:14:20.366Z,82.86
2017-07-05T00:15:21.048Z,82.86
2017-07-05T00:16:21.742Z,82.76
2017-07-05T00:17:22.426Z,83.44
2017-07-05T00:18:23.366Z,82.96
2017-07-05T00:19:24.054Z,83.05
2017-07-05T00:20:24.742Z,83.34
2017-07-05T00:21:25.427Z,83.15
2017-07-05T00:22:26.114Z,83.53
2017-07-05T00:23:27.048Z,82.86
2017-07-05T00:24:27.734Z,82.76
2017-07-05T00:25:28.429Z,82.96
2017-07-05T00:26:29.121Z,82.57
2017-07-05T00:27:29.812Z,82.86
2017-07-05T00:28:30.748Z,82.76
2017-07-05T00:29:31.437Z,82.96
2017-07-05T00:30:32.123Z,83.15
2017-07-05T00:31:32.811Z,83.01
2017-07-05T00:32:33.497Z,83.11
2017-07-05T00:33:34.434Z,83.15
2017-07-05T00:34:35.122Z,83.11
2017-07-05T00:35:35.810Z,83.01
2017-07-05T00:36:36.503Z,83.11
2017-07-05T00:37:37.185Z,82.96
2017-07-05T00:38:38.123Z,83.20
2017-07-05T00:39:38.812Z,83.15
2017-07-05T00:40:39.498Z,83.11
2017-07-05T00:41:40.189Z,83.05
2017-07-05T00:42:40.879Z,83.05
2017-07-05T00:43:41.822Z,82.96
2017-07-05T00:44:42.511Z,82.92
2017-07-05T00:45:43.198Z,83.05
2017-07-05T00:46:43.887Z,83.53
2017-07-05T00:47:44.573Z,83.11
2017-07-05T00:48:45.513Z,83.20
2017-07-05T00:49:46.204Z,83.11
2017-07-05T00:50:46.892Z,83.20
2017-07-05T00:51:47.579Z,83.49
2017-07-05T00:52:48.270Z,83.59
2017-07-05T00:53:49.212Z,83.11
2017-07-05T00:54:49.903Z,83.39
2017-07-05T00:55:50.595Z,83.30
2017-07-05T00:56:51.286Z,83.20
2017-07-05T00:57:51.977Z,83.39
2017-07-05T00:58:52.916Z,83.39
2017-07-05T00:59:53.606Z,83.59
2017-07-05T01:00:54.294Z,83.30
2017-07-05T01:01:54.981Z,83.59
2017-07-05T01:02:55.668Z,83.20
2017-07-05T01:03:56.608Z,83.30
2017-07-05T01:04:57.294Z,83.68
2017-07-05T01:05:57.984Z,83.59
2017-07-05T01:06:58.675Z,83.78
2017-07-05T01:07:59.361Z,84.26
2017-07-05T01:09:00.300Z,83.87
2017-07-05T01:10:00.990Z,84.06
2017-07-05T01:11:01.677Z,84.12
2017-07-05T01:12:02.363Z,84.74
2017-07-05T01:13:03.049Z,84.50
2017-07-05T01:14:03.988Z,84.41
2017-07-05T01:15:04.674Z,84.50
2017-07-05T01:16:05.360Z,84.50
2017-07-05T01:17:06.046Z,84.55
2017-07-05T01:18:06.740Z,84.41
2017-07-05T01:19:07.678Z,84.50
2017-07-05T01:20:08.365Z,84.64
2017-07-05T01:21:09.050Z,84.41
2017-07-05T01:22:09.733Z,84.83
2017-07-05T01:23:10.423Z,84.69
2017-07-05T01:24:11.362Z,84.69
2017-07-05T01:25:12.047Z,84.50
2017-07-05T01:26:12.734Z,84.69
2017-07-05T01:27:13.418Z,84.69
2017-07-05T01:28:14.111Z,84.59
2017-07-05T01:29:15.042Z,84.31
2017-07-05T01:30:15.729Z,84.59
2017-07-05T01:31:16.421Z,84.31
2017-07-05T01:32:17.108Z,84.69
2017-07-05T01:33:17.793Z,84.79
2017-07-05T01:34:18.736Z,85.17
2017-07-05T01:35:19.418Z,85.08
2017-07-05T01:36:20.106Z,85.27
2017-07-05T01:37:20.799Z,84.98
2017-07-05T01:38:21.483Z,85.17
2017-07-05T01:39:22.419Z,85.27
2017-07-05T01:40:23.106Z,85.08
2017-07-05T01:41:23.793Z,85.08
2017-07-05T01:42:24.484Z,85.36
2017-07-05T01:43:25.171Z,85.27
2017-07-05T01:44:26.109Z,85.08
2017-07-05T01:45:26.796Z,85.27
2017-07-05T01:46:27.487Z,85.17
2017-07-05T01:47:28.178Z,84.98
2017-07-05T01:48:28.871Z,85.17
2017-07-05T01:49:29.813Z,84.88
2017-07-05T01:50:30.498Z,85.27
2017-07-05T01:51:31.189Z,85.27
2017-07-05T01:52:31.873Z,85.27
2017-07-05T01:53:32.561Z,85.17
2017-07-05T01:54:33.502Z,85.46
2017-07-05T01:55:34.190Z,85.36
2017-07-05T01:56:34.875Z,85.41
2017-07-05T01:57:35.563Z,85.32
2017-07-05T01:58:36.248Z,85.22
2017-07-05T01:59:37.191Z,85.13
2017-07-05T02:00:37.879Z,85.17
2017-07-05T02:01:38.565Z,85.36
2017-07-05T02:02:39.251Z,85.17
2017-07-05T02:03:39.941Z,85.27
2017-07-05T02:04:40.888Z,85.55
2017-07-05T02:05:41.576Z,85.08
2017-07-05T02:06:42.265Z,85.27
2017-07-05T02:07:42.952Z,85.46
2017-07-05T02:08:43.638Z,85.32
2017-07-05T02:09:44.576Z,85.32
2017-07-05T02:10:45.265Z,85.27
2017-07-05T02:11:45.954Z,84.88
2017-07-05T02:12:46.646Z,84.50
2017-07-05T02:13:47.339Z,84.50
2017-07-05T02:14:48.280Z,85.17
2017-07-05T02:15:48.968Z,85.27
2017-07-05T02:16:49.655Z,85.32
2017-07-05T02:17:50.348Z,85.08
2017-07-05T02:18:51.038Z,85.22
2017-07-05T02:19:51.986Z,85.36
2017-07-05T02:20:52.664Z,85.08
2017-07-05T02:21:53.357Z,85.08
2017-07-05T02:22:54.044Z,85.41
2017-07-05T02:23:54.729Z,85.89
2017-07-05T02:24:55.669Z,85.89
2017-07-05T02:25:56.354Z,85.71
2017-07-05T02:26:57.040Z,85.89
2017-07-05T02:27:57.727Z,85.51
2017-07-05T02:28:58.417Z,86.37
2017-07-05T02:29:59.350Z,86.28
2017-07-05T02:31:00.039Z,86.76
2017-07-05T02:32:00.727Z,86.28
2017-07-05T02:33:01.412Z,86.37
2017-07-05T02:34:02.099Z,86.28
2017-07-05T02:35:03.039Z,86.28
2017-07-05T02:36:03.724Z,86.28
2017-07-05T02:37:04.407Z,86.08
2017-07-05T02:38:05.091Z,86.47
2017-07-05T02:39:05.776Z,86.28
2017-07-05T02:40:06.716Z,86.57
2017-07-05T02:41:07.403Z,86.37
2017-07-05T02:42:08.088Z,86.28
2017-07-05T02:43:08.774Z,86.37
2017-07-05T02:44:09.463Z,86.47
2017-07-05T02:45:10.154Z,86.28
2017-07-05T02:46:10.840Z,86.47
2017-07-05T02:47:11.531Z,86.37
2017-07-05T02:48:12.223Z,86.57
2017-07-05T02:49:12.909Z,86.37
2017-07-05T02:50:13.848Z,86.57
2017-07-05T02:51:14.545Z,87.29
2017-07-05T02:52:15.245Z,87.04
2017-07-05T02:53:15.932Z,87.29
2017-07-05T02:54:16.620Z,87.09
2017-07-05T02:55:17.559Z,87.66
2017-07-05T02:56:18.249Z,87.19
2017-07-05T02:57:18.934Z,87.29
2017-07-05T02:58:19.630Z,87.19
2017-07-05T02:59:20.320Z,87.19
2017-07-05T03:00:21.254Z,86.90
2017-07-05T03:01:21.939Z,87.19
2017-07-05T03:02:22.629Z,87.00
2017-07-05T03:03:23.319Z,86.80
2017-07-05T03:04:24.006Z,86.90
2017-07-05T03:05:24.942Z,86.90
2017-07-05T03:06:25.631Z,86.90
2017-07-05T03:07:26.316Z,86.90
2017-07-05T03:08:27.004Z,87.09
2017-07-05T03:09:27.691Z,87.19
2017-07-05T03:10:28.629Z,86.90
2017-07-05T03:11:29.318Z,86.80
2017-07-05T03:12:30.006Z,87.09
2017-07-05T03:13:30.694Z,87.19
2017-07-05T03:14:31.386Z,87.09
2017-07-05T03:15:32.322Z,87.00
2017-07-05T03:16:33.016Z,87.00
2017-07-05T03:17:33.707Z,87.09
2017-07-05T03:18:34.398Z,87.09
2017-07-05T03:19:35.085Z,87.00
2017-07-05T03:20:36.021Z,87.29
2017-07-05T03:21:36.714Z,87.48
2017-07-05T03:22:37.405Z,86.71
2017-07-05T03:23:38.094Z,87.00
2017-07-05T03:24:38.783Z,87.48
2017-07-05T03:25:39.721Z,87.86
2017-07-05T03:26:40.408Z,87.29
2017-07-05T03:27:41.094Z,87.48
2017-07-05T03:28:41.779Z,87.19
2017-07-05T03:29:42.470Z,87.00
2017-07-05T03:30:43.411Z,87.00
2017-07-05T03:31:44.108Z,87.19
2017-07-05T03:32:44.802Z,86.71
2017-07-05T03:33:45.482Z,87.00
2017-07-05T03:34:46.171Z,87.29
2017-07-05T03:35:47.113Z,87.00
2017-07-05T03:36:47.803Z,87.00
2017-07-05T03:37:48.490Z,86.90
2017-07-05T03:38:49.188Z,87.33
2017-07-05T03:39:49.877Z,86.80
2017-07-05T03:40:50.820Z,86.85
2017-07-05T03:41:51.510Z,86.61
2017-07-05T03:42:52.198Z,87.09
2017-07-05T03:43:52.889Z,87.29
2017-07-05T03:44:53.579Z,86.80
2017-07-05T03:45:54.526Z,87.09
2017-07-05T03:46:55.212Z,86.80
2017-07-05T03:47:55.903Z,86.90
2017-07-05T03:48:56.592Z,87.00
2017-07-05T03:49:57.285Z,86.71
2017-07-05T03:50:58.224Z,86.52
2017-07-05T03:51:58.917Z,86.71
2017-07-05T03:52:59.602Z,86.71
2017-07-05T03:54:00.285Z,86.71
2017-07-05T03:55:00.977Z,87.00
2017-07-05T03:56:01.918Z,87.09
2017-07-05T03:57:02.610Z,87.09
2017-07-05T03:58:03.302Z,86.71
2017-07-05T03:59:03.995Z,86.43
2017-07-05T04:00:04.689Z,86.43
2017-07-05T04:01:05.630Z,86.43
2017-07-05T04:02:06.320Z,86.43
2017-07-05T04:03:07.007Z,86.33
2017-07-05T04:04:07.694Z,86.08
2017-07-05T04:05:08.385Z,85.99
2017-07-05T04:06:09.322Z,86.37
2017-07-05T04:07:10.009Z,86.37
2017-07-05T04:08:10.701Z,85.61
2017-07-05T04:09:11.392Z,85.89
2017-07-05T04:10:12.085Z,85.99
2017-07-05T04:11:12.773Z,85.89
2017-07-05T04:12:13.472Z,85.71
2017-07-05T04:13:14.165Z,85.99
2017-07-05T04:14:14.864Z,85.89
2017-07-05T04:15:15.556Z,85.80
2017-07-05T04:16:16.252Z,86.18
2017-07-05T04:17:16.938Z,85.99
2017-07-05T04:18:17.633Z,86.18
2017-07-05T04:19:18.325Z,86.08
2017-07-05T04:20:19.014Z,85.80
2017-07-05T04:21:19.954Z,85.89
2017-07-05T04:22:20.640Z,85.71
2017-07-05T04:23:21.329Z,85.51
2017-07-05T04:24:22.020Z,85.32
2017-07-05T04:25:22.712Z,85.99
2017-07-05T04:26:23.655Z,86.28
2017-07-05T04:27:24.347Z,87.04
2017-07-05T04:28:25.040Z,86.94
2017-07-05T04:29:25.729Z,87.62
2017-07-05T04:30:26.421Z,87.33
2017-07-05T04:31:27.361Z,86.99
2017-07-05T04:32:28.056Z,87.90
2017-07-05T04:33:28.746Z,87.85
2017-07-05T04:34:29.450Z,88.19
2017-07-05T04:35:30.142Z,88.09
2017-07-05T04:36:31.085Z,88.67
2017-07-05T04:37:31.775Z,88.38
2017-07-05T04:38:32.466Z,88.62
2017-07-05T04:39:33.159Z,88.48
2017-07-05T04:40:33.851Z,88.67
2017-07-05T04:41:34.795Z,88.52
2017-07-05T04:42:35.486Z,88.43
2017-07-05T04:43:36.176Z,87.85
2017-07-05T04:44:36.870Z,88.23
2017-07-05T04:45:37.563Z,88.23
2017-07-05T04:46:38.506Z,88.90
2017-07-05T04:47:39.203Z,88.33
2017-07-05T04:48:39.891Z,88.86
2017-07-05T04:49:40.581Z,88.95
2017-07-05T04:50:41.268Z,89.38
2017-07-05T04:51:42.211Z,88.81
2017-07-05T04:52:42.907Z,89.38
2017-07-05T04:53:43.599Z,89.19
2017-07-05T04:54:44.287Z,88.81
2017-07-05T04:55:44.974Z,88.81
2017-07-05T04:56:45.913Z,91.11
2017-07-05T04:57:46.603Z,91.87
2017-07-05T04:58:47.293Z,92.49
2017-07-05T04:59:47.989Z,92.40
2017-07-05T05:00:48.676Z,93.02
2017-07-05T05:01:49.615Z,91.77
2017-07-05T05:02:50.305Z,91.19
2017-07-05T05:03:50.994Z,90.43
2017-07-05T05:04:51.685Z,89.18
2017-07-05T05:05:52.377Z,87.84
2017-07-05T05:06:53.321Z,86.54
2017-07-05T05:07:54.013Z,87.50
2017-07-05T05:08:54.709Z,87.21
2017-07-05T05:09:55.396Z,87.31
2017-07-05T05:10:56.086Z,86.07
2017-07-05T05:11:57.026Z,85.01
2017-07-05T05:12:57.716Z,85.39
2017-07-05T05:13:58.406Z,84.15
2017-07-05T05:14:59.103Z,84.25
2017-07-05T05:15:59.796Z,84.05
2017-07-05T05:17:00.738Z,84.38
2017-07-05T05:18:01.430Z,85.63
2017-07-05T05:19:02.121Z,84.38
2017-07-05T05:20:02.815Z,84.09
2017-07-05T05:21:03.504Z,82.94
2017-07-05T05:22:04.453Z,82.65
2017-07-05T05:23:05.144Z,83.71
2017-07-05T05:24:05.836Z,84.15
2017-07-05T05:25:06.525Z,84.15
2017-07-05T05:26:07.213Z,85.01
2017-07-05T05:27:08.158Z,85.11
2017-07-05T05:28:08.845Z,85.49
2017-07-05T05:29:09.535Z,85.58
2017-07-05T05:30:10.227Z,85.97
2017-07-05T05:31:10.917Z,85.78
2017-07-05T05:32:11.875Z,86.16
2017-07-05T05:33:12.567Z,86.25
2017-07-05T05:34:13.260Z,86.74
2017-07-05T05:35:13.951Z,86.74
2017-07-05T05:36:14.637Z,86.45
2017-07-05T05:37:15.584Z,86.35
2017-07-05T05:38:16.279Z,86.83
2017-07-05T05:39:16.970Z,87.02
2017-07-05T05:40:17.665Z,87.12
2017-07-05T05:41:18.351Z,86.93
2017-07-05T05:42:19.039Z,87.02
2017-07-05T05:43:19.733Z,87.02
2017-07-05T05:44:20.423Z,86.45
2017-07-05T05:45:21.119Z,87.12
2017-07-05T05:46:21.810Z,86.88
2017-07-05T05:47:22.754Z,87.21
2017-07-05T05:48:23.444Z,87.27
2017-07-05T05:49:24.138Z,86.93
2017-07-05T05:50:24.829Z,86.54
2017-07-05T05:51:25.519Z,86.35
2017-07-05T05:52:26.463Z,86.83
2017-07-05T05:53:27.166Z,86.74
2017-07-05T05:54:27.863Z,86.54
2017-07-05T05:55:28.554Z,86.93
2017-07-05T05:56:29.244Z,86.54
2017-07-05T05:57:30.194Z,86.83
2017-07-05T05:58:30.887Z,86.35
2017-07-05T05:59:31.579Z,86.25
2017-07-05T06:00:32.273Z,86.35
2017-07-05T06:01:32.970Z,85.88
2017-07-05T06:02:33.916Z,85.39
2017-07-05T06:03:34.607Z,84.15
2017-07-05T06:04:35.298Z,84.25
2017-07-05T06:05:35.987Z,83.86
2017-07-05T06:06:36.678Z,84.34
2017-07-05T06:07:37.620Z,83.76
2017-07-05T06:08:38.313Z,83.67
2017-07-05T06:09:39.006Z,83.67
2017-07-05T06:10:39.701Z,84.25
2017-07-05T06:11:40.392Z,84.05
2017-07-05T06:12:41.333Z,84.28
2017-07-05T06:13:42.022Z,84.28
2017-07-05T06:14:42.713Z,84.00
2017-07-05T06:15:43.403Z,83.81
2017-07-05T06:16:44.098Z,84.19
2017-07-05T06:17:45.039Z,84.09
2017-07-05T06:18:45.732Z,84.77
2017-07-05T06:19:46.422Z,84.48
2017-07-05T06:20:47.114Z,84.19
2017-07-05T06:21:47.811Z,84.19
2017-07-05T06:22:48.759Z,84.00
2017-07-05T06:23:49.441Z,84.38
2017-07-05T06:24:50.131Z,84.67
2017-07-05T06:25:50.826Z,84.19
2017-07-05T06:26:51.520Z,84.38
2017-07-05T06:27:52.212Z,83.91
2017-07-05T06:28:52.904Z,84.00
2017-07-05T06:29:53.593Z,84.23
2017-07-05T06:30:54.283Z,83.75
2017-07-05T06:31:54.988Z,83.75
2017-07-05T06:32:55.929Z,83.94
2017-07-05T06:33:56.620Z,83.08
2017-07-05T06:34:57.321Z,83.27
2017-07-05T06:35:58.005Z,82.89
2017-07-05T06:36:58.697Z,83.75
2017-07-05T06:37:59.641Z,83.56
2017-07-05T06:39:00.330Z,83.27
2017-07-05T06:40:01.023Z,83.56
2017-07-05T06:41:01.713Z,83.37
2017-07-05T06:42:02.413Z,83.65
2017-07-05T06:43:03.356Z,83.60
2017-07-05T06:44:04.049Z,83.27
2017-07-05T06:45:04.739Z,83.27
2017-07-05T06:46:05.432Z,83.80
2017-07-05T06:47:06.125Z,83.75
2017-07-05T06:48:07.064Z,83.80
2017-07-05T06:49:07.754Z,83.89
2017-07-05T06:50:08.449Z,84.18
2017-07-05T06:51:09.139Z,84.18
2017-07-05T06:52:09.838Z,83.60
2017-07-05T06:53:10.779Z,83.51
2017-07-05T06:54:11.469Z,83.31
2017-07-05T06:55:12.164Z,83.89
2017-07-05T06:56:12.862Z,83.98
2017-07-05T06:57:13.552Z,83.60
2017-07-05T06:58:14.495Z,83.12
2017-07-05T06:59:15.185Z,83.31
2017-07-05T07:00:15.887Z,82.84
2017-07-05T07:01:16.582Z,82.93
2017-07-05T07:02:17.275Z,83.03
2017-07-05T07:03:18.224Z,82.78
2017-07-05T07:04:18.923Z,82.87
2017-07-05T07:05:19.618Z,82.87
2017-07-05T07:06:20.308Z,83.16
2017-07-05T07:07:21.002Z,82.68
2017-07-05T07:08:21.947Z,83.07
2017-07-05T07:09:22.638Z,82.59
2017-07-05T07:10:23.338Z,82.97
2017-07-05T07:11:24.028Z,82.97
2017-07-05T07:12:24.730Z,83.07
2017-07-05T07:13:25.423Z,82.97
2017-07-05T07:14:26.114Z,82.49
2017-07-05T07:15:26.810Z,82.68
2017-07-05T07:16:27.503Z,83.16
2017-07-05T07:17:28.202Z,82.78
2017-07-05T07:18:29.147Z,82.97
2017-07-05T07:19:29.836Z,82.40
2017-07-05T07:20:30.529Z,82.30
2017-07-05T07:21:31.227Z,81.92
2017-07-05T07:22:31.929Z,82.05
2017-07-05T07:23:32.873Z,81.96
2017-07-05T07:24:33.580Z,81.96
2017-07-05T07:25:34.273Z,82.34
2017-07-05T07:26:34.966Z,81.86
2017-07-05T07:27:35.659Z,81.48
2017-07-05T07:28:36.605Z,81.67
2017-07-05T07:29:37.304Z,81.57
2017-07-05T07:30:37.995Z,81.67
2017-07-05T07:31:38.690Z,81.09
2017-07-05T07:32:39.389Z,80.94
2017-07-05T07:33:40.332Z,80.71
2017-07-05T07:34:41.025Z,81.13
2017-07-05T07:35:41.727Z,81.13
2017-07-05T07:36:42.428Z,81.23
2017-07-05T07:37:43.120Z,80.84
2017-07-05T07:38:44.061Z,80.07
2017-07-05T07:39:44.757Z,80.07
2017-07-05T07:40:45.455Z,79.88
2017-07-05T07:41:46.151Z,79.60
2017-07-05T07:42:46.840Z,79.79
2017-07-05T07:43:47.788Z,80.40
2017-07-05T07:44:48.486Z,80.36
2017-07-05T07:45:49.185Z,80.21
2017-07-05T07:46:49.891Z,79.92
2017-07-05T07:47:50.588Z,79.92
2017-07-05T07:48:51.537Z,79.92
2017-07-05T07:49:52.225Z,79.15
2017-07-05T07:50:52.919Z,78.96
2017-07-05T07:51:53.609Z,79.35
2017-07-05T07:52:54.300Z,78.96
2017-07-05T07:53:55.247Z,78.77
2017-07-05T07:54:55.945Z,78.19
2017-07-05T07:55:56.643Z,78.48
2017-07-05T07:56:57.338Z,78.42
2017-07-05T07:57:58.035Z,77.94
2017-07-05T07:58:58.726Z,78.33
2017-07-05T07:59:59.423Z,78.13
2017-07-05T08:01:00.119Z,78.03
2017-07-05T08:02:00.815Z,77.84
2017-07-05T08:03:01.515Z,77.65
2017-07-05T08:04:02.464Z,77.94
2017-07-05T08:05:03.164Z,77.65
2017-07-05T08:06:03.858Z,77.75
2017-07-05T08:07:04.554Z,77.17
2017-07-05T08:08:05.254Z,77.94
2017-07-05T08:09:06.200Z,77.75
2017-07-05T08:10:06.897Z,77.65
2017-07-05T08:11:07.596Z,77.11
2017-07-05T08:12:08.291Z,76.78
2017-07-05T08:13:08.982Z,77.21
2017-07-05T08:14:09.926Z,77.50
2017-07-05T08:15:10.620Z,77.50
2017-07-05T08:16:11.313Z,77.11
2017-07-05T08:17:12.009Z,76.73
2017-07-05T08:18:12.706Z,76.53
2017-07-05T08:19:13.651Z,76.82
2017-07-05T08:20:14.349Z,77.11
2017-07-05T08:21:15.040Z,77.63
2017-07-05T08:22:15.732Z,76.38
2017-07-05T08:23:16.429Z,75.80
2017-07-05T08:24:17.374Z,75.80
2017-07-05T08:25:18.074Z,75.23
2017-07-05T08:26:18.769Z,74.84
2017-07-05T08:27:19.466Z,75.32
2017-07-05T08:28:20.164Z,75.80
2017-07-05T08:29:21.106Z,75.42
2017-07-05T08:30:21.805Z,75.93
2017-07-05T08:31:22.505Z,76.23
2017-07-05T08:32:23.209Z,76.13
2017-07-05T08:33:23.904Z,75.55
2017-07-05T08:34:24.852Z,74.10
2017-07-05T08:35:25.546Z,74.30
2017-07-05T08:36:26.244Z,74.20
2017-07-05T08:37:26.937Z,74.97
2017-07-05T08:38:27.631Z,75.16
2017-07-05T08:39:28.580Z,74.88
2017-07-05T08:40:29.277Z,74.30
2017-07-05T08:41:29.977Z,74.01
2017-07-05T08:42:30.668Z,73.05
2017-07-05T08:43:31.361Z,73.14
2017-07-05T08:44:32.060Z,72.79
2017-07-05T08:45:32.754Z,73.18
2017-07-05T08:46:33.450Z,72.89
2017-07-05T08:47:34.151Z,72.60
2017-07-05T08:48:34.846Z,72.50
2017-07-05T08:49:35.798Z,72.31
2017-07-05T08:50:36.491Z,72.15
2017-07-05T08:51:37.185Z,71.48
2017-07-05T08:52:37.880Z,71.58
2017-07-05T08:53:38.576Z,71.77
2017-07-05T08:54:39.534Z,71.77
2017-07-05T08:55:40.231Z,72.34
2017-07-05T08:56:40.934Z,72.73
2017-07-05T08:57:41.630Z,71.28
2017-07-05T08:58:42.325Z,71.67
2017-07-05T08:59:43.274Z,71.00
2017-07-05T09:00:43.969Z,70.36
2017-07-05T09:01:44.663Z,71.03
2017-07-05T09:02:45.366Z,70.45
2017-07-05T09:03:46.061Z,71.03
2017-07-05T09:04:46.759Z,70.64
2017-07-05T09:05:47.467Z,70.64
2017-07-05T09:06:48.164Z,70.64
2017-07-05T09:07:48.871Z,69.29
2017-07-05T09:08:49.569Z,68.36
2017-07-05T09:09:50.508Z,68.55
2017-07-05T09:10:51.191Z,68.43
2017-07-05T09:11:51.902Z,68.75
2017-07-05T09:12:52.597Z,69.62
2017-07-05T09:13:53.294Z,68.94
2017-07-05T09:14:54.241Z,68.94
2017-07-05T09:15:54.938Z,68.36
2017-07-05T09:16:55.631Z,67.97
2017-07-05T09:17:56.326Z,67.69
2017-07-05T09:18:57.022Z,67.59
2017-07-05T09:19:57.969Z,68.46
2017-07-05T09:20:58.665Z,68.55
2017-07-05T09:21:59.365Z,68.10
2017-07-05T09:23:00.064Z,66.85
2017-07-05T09:24:00.767Z,66.56
2017-07-05T09:25:01.725Z,66.36
2017-07-05T09:26:02.426Z,67.14
2017-07-05T09:27:03.121Z,67.33
2017-07-05T09:28:03.818Z,66.66
2017-07-05T09:29:04.512Z,66.36
2017-07-05T09:30:05.223Z,67.14
2017-07-05T09:31:05.919Z,65.88
2017-07-05T09:32:06.615Z,65.59
2017-07-05T09:33:07.230Z,64.95
2017-07-05T09:34:08.012Z,64.66
2017-07-05T09:35:08.962Z,64.08
2017-07-05T09:36:09.659Z,64.47
2017-07-05T09:37:10.356Z,63.40
2017-07-05T09:38:11.050Z,63.31
2017-07-05T09:39:11.753Z,64.01
2017-07-05T09:40:12.702Z,63.53
2017-07-05T09:41:13.396Z,63.43
2017-07-05T09:42:14.094Z,62.18
2017-07-05T09:43:14.794Z,62.76
2017-07-05T09:44:15.489Z,61.69
2017-07-05T09:45:16.435Z,61.98
2017-07-05T09:46:17.132Z,62.98
2017-07-05T09:47:17.829Z,62.69
2017-07-05T09:48:18.526Z,61.43
2017-07-05T09:49:19.230Z,62.59
2017-07-05T09:50:20.174Z,60.47
2017-07-05T09:51:20.872Z,61.05
2017-07-05T09:52:21.567Z,61.82
2017-07-05T09:53:22.271Z,62.69
2017-07-05T09:54:22.967Z,62.98
2017-07-05T09:55:23.914Z,61.53
2017-07-05T09:56:24.628Z,61.05
2017-07-05T09:57:25.326Z,60.27
2017-07-05T09:58:26.025Z,60.11
2017-07-05T09:59:26.783Z,60.30
2017-07-05T10:00:27.428Z,60.30
2017-07-05T10:01:28.135Z,61.08
2017-07-05T10:02:28.754Z,59.14
2017-07-05T10:03:29.510Z,58.69
2017-07-05T10:04:30.211Z,57.91
2017-07-05T10:05:31.158Z,58.20
2017-07-05T10:06:31.853Z,57.91
2017-07-05T10:07:32.553Z,58.14
2017-07-05T10:08:33.254Z,57.26
2017-07-05T10:09:33.961Z,57.75
2017-07-05T10:10:34.914Z,56.68
2017-07-05T10:11:35.608Z,56.68
2017-07-05T10:12:36.311Z,57.17
2017-07-05T10:13:37.007Z,55.32
2017-07-05T10:14:37.705Z,55.32
2017-07-05T10:15:38.403Z,55.93
2017-07-05T10:16:39.099Z,55.26
2017-07-05T10:17:39.794Z,55.64
2017-07-05T10:18:40.494Z,55.54
2017-07-05T10:19:41.193Z,56.90
2017-07-05T10:20:42.144Z,56.41
2017-07-05T10:21:42.848Z,54.38
2017-07-05T10:22:43.590Z,53.99
2017-07-05T10:23:44.242Z,53.89
2017-07-05T10:24:44.943Z,52.93
2017-07-05T10:25:45.900Z,53.15
2017-07-05T10:26:46.598Z,53.34
2017-07-05T10:27:47.302Z,54.11
2017-07-05T10:28:48.001Z,54.14
2017-07-05T10:29:48.701Z,54.34
2017-07-05T10:30:49.659Z,53.56
2017-07-05T10:31:50.351Z,52.59
2017-07-05T10:32:51.051Z,51.23
2017-07-05T10:33:51.752Z,52.33
2017-07-05T10:34:52.459Z,49.99
2017-07-05T10:35:53.405Z,51.55
2017-07-05T10:36:54.100Z,52.23
2017-07-05T10:37:54.804Z,53.39
2017-07-05T10:38:55.503Z,52.94
2017-07-05T10:39:56.202Z,50.89
2017-07-05T10:40:57.153Z,49.82
2017-07-05T10:41:57.848Z,49.44
2017-07-05T10:42:58.558Z,49.34
2017-07-05T10:43:59.258Z,49.54
2017-07-05T10:44:59.959Z,48.66
2017-07-05T10:46:00.905Z,48.47
2017-07-05T10:47:01.607Z,48.47
2017-07-05T10:48:02.306Z,49.44
2017-07-05T10:49:03.001Z,50.24
2017-07-05T10:50:03.700Z,49.76
2017-07-05T10:51:04.655Z,47.61
2017-07-05T10:52:05.355Z,49.56
2017-07-05T10:53:06.048Z,49.46
2017-07-05T10:54:06.743Z,49.37
2017-07-05T10:55:07.441Z,49.76
2017-07-05T10:56:08.390Z,48.58
2017-07-05T10:57:09.089Z,49.39
2017-07-05T10:58:09.788Z,48.00
2017-07-05T10:59:10.486Z,47.52
2017-07-05T11:00:11.191Z,47.32
2017-07-05T11:01:11.891Z,48.30
2017-07-05T11:02:12.586Z,46.77
2017-07-05T11:03:13.288Z,46.35
2017-07-05T11:04:13.981Z,45.87
2017-07-05T11:05:14.689Z,46.08
2017-07-05T11:06:15.647Z,45.79
2017-07-05T11:07:16.347Z,45.79
2017-07-05T11:08:17.046Z,46.37
2017-07-05T11:09:17.750Z,48.44
2017-07-05T11:10:18.457Z,45.72
2017-07-05T11:11:19.409Z,45.01
2017-07-05T11:12:20.110Z,44.74
2017-07-05T11:13:20.812Z,45.72
2017-07-05T11:14:21.509Z,45.62
2017-07-05T11:15:22.214Z,45.62
2017-07-05T11:16:23.168Z,45.42
2017-07-05T11:17:23.874Z,45.01
2017-07-05T11:18:24.572Z,44.16
2017-07-05T11:19:25.265Z,44.55
2017-07-05T11:20:25.973Z,45.42
2017-07-05T11:21:26.926Z,45.14
2017-07-05T11:22:27.630Z,44.84
2017-07-05T11:23:28.325Z,43.96
2017-07-05T11:24:29.029Z,44.86
2017-07-05T11:25:29.726Z,45.04
2017-07-05T11:26:30.681Z,46.20
2017-07-05T11:27:31.380Z,44.86
2017-07-05T11:28:32.086Z,43.48
2017-07-05T11:29:32.782Z,44.86
2017-07-05T11:30:33.484Z,47.61
2017-07-05T11:31:34.439Z,45.08
2017-07-05T11:32:35.138Z,43.91
2017-07-05T11:33:35.840Z,44.98
2017-07-05T11:34:36.541Z,43.91
2017-07-05T11:35:37.244Z,43.91
2017-07-05T11:36:38.200Z,43.60
2017-07-05T11:37:38.899Z,44.30
2017-07-05T11:38:39.601Z,45.47
2017-07-05T11:39:40.302Z,46.64
2017-07-05T11:40:41.004Z,44.01
2017-07-05T11:41:41.965Z,42.84
2017-07-05T11:42:42.670Z,44.98
2017-07-05T11:43:43.368Z,45.78
2017-07-05T11:44:44.070Z,42.76
2017-07-05T11:45:44.772Z,42.84
2017-07-05T11:46:45.625Z,43.43
2017-07-05T11:47:46.327Z,44.13
2017-07-05T11:48:47.027Z,42.86
2017-07-05T11:49:47.724Z,43.52
2017-07-05T11:50:48.425Z,43.43
2017-07-05T11:51:49.381Z,42.08
2017-07-05T11:52:50.094Z,42.65
2017-07-05T11:53:50.800Z,43.04
2017-07-05T11:54:51.500Z,43.40
2017-07-05T11:55:52.200Z,43.60
2017-07-05T11:56:53.154Z,43.40
2017-07-05T11:57:53.867Z,43.89
2017-07-05T11:58:54.567Z,44.98
2017-07-05T11:59:55.272Z,44.90
2017-07-05T12:00:55.977Z,45.78
2017-07-05T12:01:56.925Z,44.03
2017-07-05T12:02:57.625Z,45.71
2017-07-05T12:03:58.331Z,43.66
2017-07-05T12:04:59.031Z,43.49
2017-07-05T12:05:59.731Z,42.80
2017-07-05T12:07:00.683Z,42.51
2017-07-05T12:08:01.383Z,40.58
2017-07-05T12:09:02.093Z,42.24
2017-07-05T12:10:02.800Z,42.83
2017-07-05T12:11:03.499Z,39.80
2017-07-05T12:12:04.460Z,39.82
2017-07-05T12:13:05.163Z,38.94
2017-07-05T12:14:05.863Z,38.84
2017-07-05T12:15:06.565Z,40.21
2017-07-05T12:16:07.261Z,40.31
2017-07-05T12:17:07.962Z,39.04
2017-07-05T12:18:08.673Z,40.09
2017-07-05T12:19:09.373Z,40.39
2017-07-05T12:20:10.076Z,39.41
2017-07-05T12:21:10.782Z,39.31
2017-07-05T12:22:11.743Z,40.58
2017-07-05T12:23:12.450Z,40.76
2017-07-05T12:24:13.149Z,40.78
2017-07-05T12:25:13.854Z,39.98
2017-07-05T12:26:14.558Z,40.86
2017-07-05T12:27:15.258Z,40.16
2017-07-05T12:28:15.958Z,40.35
2017-07-05T12:29:16.657Z,41.22
2017-07-05T12:30:17.353Z,41.81
2017-07-05T12:31:18.055Z,41.32
2017-07-05T12:32:19.008Z,42.00
2017-07-05T12:33:19.706Z,42.10
2017-07-05T12:34:20.411Z,40.83
2017-07-05T12:35:21.114Z,41.81
2017-07-05T12:36:21.816Z,43.98
2017-07-05T12:37:22.768Z,43.39
2017-07-05T12:38:23.470Z,42.73
2017-07-05T12:39:24.172Z,43.32
2017-07-05T12:40:24.873Z,42.85
2017-07-05T12:41:25.576Z,42.34
2017-07-05T12:42:26.535Z,40.80
2017-07-05T12:43:27.238Z,39.04
2017-07-05T12:44:27.942Z,38.84
2017-07-05T12:45:28.647Z,41.38
2017-07-05T12:46:29.344Z,41.77
2017-07-05T12:47:30.301Z,39.94
2017-07-05T12:48:31.008Z,40.43
2017-07-05T12:49:31.715Z,37.89
2017-07-05T12:50:32.432Z,38.87
2017-07-05T12:51:33.134Z,40.84
2017-07-05T12:52:34.238Z,38.96
2017-07-05T12:53:34.941Z,38.89
2017-07-05T12:54:35.643Z,38.57
2017-07-05T12:55:36.345Z,38.38
2017-07-05T12:56:37.057Z,39.26
2017-07-05T12:57:38.009Z,37.79
2017-07-05T12:58:38.711Z,37.70
2017-07-05T12:59:39.410Z,38.18
2017-07-05T13:00:40.117Z,37.40
2017-07-05T13:01:40.817Z,37.41